sensor_id;sensor_type;location;lat;lon;timestamp;temperature;humidity
18741;DHT22;9499;52.472;13.448;2024-01-30T00:00:13;3.70;1.00
18741;DHT22;9499;52.472;13.448;2024-01-30T00:02:40;3.60;1.00
18741;DHT22;9499;52.472;13.448;2024-01-30T00:05:07;3.60;1.00
18741;DHT22;9499;52.472;13.448;2024-01-30T00:07:34;3.60;1.00
18741;DHT22;9499;52.472;13.448;2024-01-30T00:10:01;3.60;1.00
18741;DHT22;9499;52.472;13.448;2024-01-30T00:12:27;3.60;99.90
18741;DHT22;9499;52.472;13.448;2024-01-30T00:14:54;3.60;1.00
18741;DHT22;9499;52.472;13.448;2024-01-30T00:17:20;3.60;99.90
18741;DHT22;9499;52.472;13.448;2024-01-30T00:19:47;3.60;46.20
18741;DHT22;9499;52.472;13.448;2024-01-30T00:22:13;3.60;99.90
18741;DHT22;9499;52.472;13.448;2024-01-30T00:24:41;3.50;99.90
18741;DHT22;9499;52.472;13.448;2024-01-30T00:27:08;3.50;99.90
18741;DHT22;9499;52.472;13.448;2024-01-30T00:29:34;3.50;99.90
18741;DHT22;9499;52.472;13.448;2024-01-30T00:32:01;3.50;99.90
18741;DHT22;9499;52.472;13.448;2024-01-30T00:34:27;3.50;1.00
18741;DHT22;9499;52.472;13.448;2024-01-30T00:36:54;3.50;1.00
18741;DHT22;9499;52.472;13.448;2024-01-30T00:39:20;3.50;99.90
18741;DHT22;9499;52.472;13.448;2024-01-30T00:41:48;3.40;1.00
18741;DHT22;9499;52.472;13.448;2024-01-30T00:44:14;3.40;1.00
18741;DHT22;9499;52.472;13.448;2024-01-30T00:46:41;3.40;1.00
18741;DHT22;9499;52.472;13.448;2024-01-30T00:49:07;3.40;1.00
18741;DHT22;9499;52.472;13.448;2024-01-30T00:51:34;3.30;1.00
18741;DHT22;9499;52.472;13.448;2024-01-30T00:54:00;3.30;1.00
18741;DHT22;9499;52.472;13.448;2024-01-30T00:56:27;3.30;1.00
18741;DHT22;9499;52.472;13.448;2024-01-30T00:58:55;3.30;1.00
18741;DHT22;9499;52.472;13.448;2024-01-30T01:01:22;3.30;1.00
18741;DHT22;9499;52.472;13.448;2024-01-30T01:03:48;3.20;1.00
18741;DHT22;9499;52.472;13.448;2024-01-30T01:06:15;3.20;1.00
18741;DHT22;9499;52.472;13.448;2024-01-30T01:08:41;3.20;1.00
18741;DHT22;9499;52.472;13.448;2024-01-30T01:11:08;3.20;1.00
18741;DHT22;9499;52.472;13.448;2024-01-30T01:13:34;3.10;1.00
18741;DHT22;9499;52.472;13.448;2024-01-30T01:16:03;3.10;1.00
18741;DHT22;9499;52.472;13.448;2024-01-30T01:18:29;3.10;1.00
18741;DHT22;9499;52.472;13.448;2024-01-30T01:20:56;3.00;1.00
18741;DHT22;9499;52.472;13.448;2024-01-30T01:23:22;3.10;1.00
18741;DHT22;9499;52.472;13.448;2024-01-30T01:25:49;3.00;1.00
18741;DHT22;9499;52.472;13.448;2024-01-30T01:28:15;3.00;1.00
18741;DHT22;9499;52.472;13.448;2024-01-30T01:30:42;3.00;1.00
18741;DHT22;9499;52.472;13.448;2024-01-30T01:33:10;3.00;1.00
18741;DHT22;9499;52.472;13.448;2024-01-30T01:35:39;3.00;99.90
18741;DHT22;9499;52.472;13.448;2024-01-30T01:38:05;3.00;99.90
18741;DHT22;9499;52.472;13.448;2024-01-30T01:40:32;2.90;1.00
18741;DHT22;9499;52.472;13.448;2024-01-30T01:43:02;2.90;1.00
18741;DHT22;9499;52.472;13.448;2024-01-30T01:45:29;2.90;85.10
18741;DHT22;9499;52.472;13.448;2024-01-30T01:47:56;2.90;99.90
18741;DHT22;9499;52.472;13.448;2024-01-30T01:50:24;2.90;99.90
18741;DHT22;9499;52.472;13.448;2024-01-30T01:52:52;2.90;99.90
18741;DHT22;9499;52.472;13.448;2024-01-30T01:55:22;2.80;99.90
18741;DHT22;9499;52.472;13.448;2024-01-30T01:57:50;2.90;99.90
18741;DHT22;9499;52.472;13.448;2024-01-30T02:00:18;2.80;99.90
18741;DHT22;9499;52.472;13.448;2024-01-30T02:02:46;2.90;99.90
18741;DHT22;9499;52.472;13.448;2024-01-30T02:05:13;2.80;99.90
18741;DHT22;9499;52.472;13.448;2024-01-30T02:07:42;2.70;1.00
18741;DHT22;9499;52.472;13.448;2024-01-30T02:10:09;2.70;1.00
18741;DHT22;9499;52.472;13.448;2024-01-30T02:12:36;2.70;1.00
18741;DHT22;9499;52.472;13.448;2024-01-30T02:15:04;2.70;53.70
18741;DHT22;9499;52.472;13.448;2024-01-30T02:17:32;2.70;99.90
18741;DHT22;9499;52.472;13.448;2024-01-30T02:19:59;2.70;99.90
18741;DHT22;9499;52.472;13.448;2024-01-30T02:22:27;2.70;99.90
18741;DHT22;9499;52.472;13.448;2024-01-30T02:24:54;2.70;1.00
18741;DHT22;9499;52.472;13.448;2024-01-30T02:27:23;2.70;1.00
18741;DHT22;9499;52.472;13.448;2024-01-30T02:29:51;2.80;1.00
18741;DHT22;9499;52.472;13.448;2024-01-30T02:32:17;2.80;99.90
18741;DHT22;9499;52.472;13.448;2024-01-30T02:34:44;2.80;99.90
18741;DHT22;9499;52.472;13.448;2024-01-30T02:37:11;2.80;99.90
18741;DHT22;9499;52.472;13.448;2024-01-30T02:39:39;2.80;99.90
18741;DHT22;9499;52.472;13.448;2024-01-30T02:42:05;2.80;99.90
18741;DHT22;9499;52.472;13.448;2024-01-30T02:44:32;2.80;99.90
18741;DHT22;9499;52.472;13.448;2024-01-30T02:46:58;2.80;1.00
18741;DHT22;9499;52.472;13.448;2024-01-30T02:49:25;2.80;1.00
18741;DHT22;9499;52.472;13.448;2024-01-30T02:51:53;2.80;1.00
18741;DHT22;9499;52.472;13.448;2024-01-30T02:54:20;2.80;1.00
18741;DHT22;9499;52.472;13.448;2024-01-30T02:56:48;2.80;63.10
18741;DHT22;9499;52.472;13.448;2024-01-30T02:59:14;2.90;1.00
18741;DHT22;9499;52.472;13.448;2024-01-30T03:01:44;2.90;1.00
18741;DHT22;9499;52.472;13.448;2024-01-30T03:04:11;2.80;99.90
18741;DHT22;9499;52.472;13.448;2024-01-30T03:06:38;2.80;1.00
18741;DHT22;9499;52.472;13.448;2024-01-30T03:09:04;2.80;1.00
18741;DHT22;9499;52.472;13.448;2024-01-30T03:11:31;2.80;1.00
18741;DHT22;9499;52.472;13.448;2024-01-30T03:14:01;2.80;1.00
18741;DHT22;9499;52.472;13.448;2024-01-30T03:16:29;2.80;1.00
18741;DHT22;9499;52.472;13.448;2024-01-30T03:18:56;2.80;1.00
18741;DHT22;9499;52.472;13.448;2024-01-30T03:21:22;2.80;99.90
18741;DHT22;9499;52.472;13.448;2024-01-30T03:23:49;2.80;1.00
18741;DHT22;9499;52.472;13.448;2024-01-30T03:26:15;2.80;1.00
18741;DHT22;9499;52.472;13.448;2024-01-30T03:28:42;2.80;1.00
18741;DHT22;9499;52.472;13.448;2024-01-30T03:31:10;2.80;1.00
18741;DHT22;9499;52.472;13.448;2024-01-30T03:33:36;2.80;1.00
18741;DHT22;9499;52.472;13.448;2024-01-30T03:36:04;2.70;1.00
18741;DHT22;9499;52.472;13.448;2024-01-30T03:38:30;2.70;1.00
18741;DHT22;9499;52.472;13.448;2024-01-30T03:40:58;2.70;1.00
18741;DHT22;9499;52.472;13.448;2024-01-30T03:43:24;2.70;59.60
18741;DHT22;9499;52.472;13.448;2024-01-30T03:45:51;2.70;66.40
18741;DHT22;9499;52.472;13.448;2024-01-30T03:48:20;2.70;95.70
18741;DHT22;9499;52.472;13.448;2024-01-30T03:50:47;2.70;99.90
18741;DHT22;9499;52.472;13.448;2024-01-30T03:53:13;2.70;99.90
18741;DHT22;9499;52.472;13.448;2024-01-30T03:55:40;2.70;99.90
18741;DHT22;9499;52.472;13.448;2024-01-30T03:58:07;2.70;99.90
18741;DHT22;9499;52.472;13.448;2024-01-30T04:00:33;2.70;99.90
18741;DHT22;9499;52.472;13.448;2024-01-30T04:02:59;2.70;99.90
18741;DHT22;9499;52.472;13.448;2024-01-30T04:05:27;2.70;99.90
18741;DHT22;9499;52.472;13.448;2024-01-30T04:07:54;2.70;99.90
18741;DHT22;9499;52.472;13.448;2024-01-30T04:10:20;2.70;1.00
18741;DHT22;9499;52.472;13.448;2024-01-30T04:12:47;2.70;1.00
18741;DHT22;9499;52.472;13.448;2024-01-30T04:15:14;2.70;1.00
18741;DHT22;9499;52.472;13.448;2024-01-30T04:17:41;2.70;1.00
18741;DHT22;9499;52.472;13.448;2024-01-30T04:20:12;2.70;1.00
18741;DHT22;9499;52.472;13.448;2024-01-30T04:22:41;2.70;1.00
18741;DHT22;9499;52.472;13.448;2024-01-30T04:25:07;2.70;48.50
18741;DHT22;9499;52.472;13.448;2024-01-30T04:27:34;2.70;99.90
18741;DHT22;9499;52.472;13.448;2024-01-30T04:30:01;2.70;99.90
18741;DHT22;9499;52.472;13.448;2024-01-30T04:32:27;2.70;99.90
18741;DHT22;9499;52.472;13.448;2024-01-30T04:34:53;2.70;1.00
18741;DHT22;9499;52.472;13.448;2024-01-30T04:37:20;2.70;1.00
18741;DHT22;9499;52.472;13.448;2024-01-30T04:39:48;2.70;1.00
18741;DHT22;9499;52.472;13.448;2024-01-30T04:42:14;2.80;1.00
18741;DHT22;9499;52.472;13.448;2024-01-30T04:44:41;2.70;99.90
18741;DHT22;9499;52.472;13.448;2024-01-30T04:47:08;2.70;99.90
18741;DHT22;9499;52.472;13.448;2024-01-30T04:49:38;2.60;99.90
18741;DHT22;9499;52.472;13.448;2024-01-30T04:52:05;2.60;1.00
18741;DHT22;9499;52.472;13.448;2024-01-30T04:54:32;2.70;1.00
18741;DHT22;9499;52.472;13.448;2024-01-30T04:57:00;2.70;1.00
18741;DHT22;9499;52.472;13.448;2024-01-30T04:59:28;2.60;1.00
18741;DHT22;9499;52.472;13.448;2024-01-30T05:01:56;2.60;1.00
18741;DHT22;9499;52.472;13.448;2024-01-30T05:04:22;2.60;1.00
18741;DHT22;9499;52.472;13.448;2024-01-30T05:06:49;2.60;1.00
18741;DHT22;9499;52.472;13.448;2024-01-30T05:09:15;2.60;1.00
18741;DHT22;9499;52.472;13.448;2024-01-30T05:11:42;2.60;1.00
18741;DHT22;9499;52.472;13.448;2024-01-30T05:14:10;2.60;17.70
18741;DHT22;9499;52.472;13.448;2024-01-30T05:16:37;2.60;64.70
18741;DHT22;9499;52.472;13.448;2024-01-30T05:19:04;2.60;99.90
18741;DHT22;9499;52.472;13.448;2024-01-30T05:21:31;2.60;99.90
18741;DHT22;9499;52.472;13.448;2024-01-30T05:23:57;2.50;99.90
18741;DHT22;9499;52.472;13.448;2024-01-30T05:26:23;2.50;99.90
18741;DHT22;9499;52.472;13.448;2024-01-30T05:28:49;2.50;99.90
18741;DHT22;9499;52.472;13.448;2024-01-30T05:31:17;2.50;1.00
18741;DHT22;9499;52.472;13.448;2024-01-30T05:33:44;2.50;1.00
18741;DHT22;9499;52.472;13.448;2024-01-30T05:36:11;2.50;1.00
18741;DHT22;9499;52.472;13.448;2024-01-30T05:38:38;2.50;1.00
18741;DHT22;9499;52.472;13.448;2024-01-30T05:41:05;2.50;1.00
18741;DHT22;9499;52.472;13.448;2024-01-30T05:43:31;2.50;1.00
18741;DHT22;9499;52.472;13.448;2024-01-30T05:45:58;2.50;1.00
18741;DHT22;9499;52.472;13.448;2024-01-30T05:48:26;2.50;1.00
18741;DHT22;9499;52.472;13.448;2024-01-30T05:50:52;2.50;99.90
18741;DHT22;9499;52.472;13.448;2024-01-30T05:53:19;2.50;1.00
18741;DHT22;9499;52.472;13.448;2024-01-30T05:55:45;2.40;1.00
18741;DHT22;9499;52.472;13.448;2024-01-30T05:58:12;2.40;1.00
18741;DHT22;9499;52.472;13.448;2024-01-30T06:00:38;2.40;1.00
18741;DHT22;9499;52.472;13.448;2024-01-30T06:03:05;2.50;1.00
18741;DHT22;9499;52.472;13.448;2024-01-30T06:05:33;2.50;1.00
18741;DHT22;9499;52.472;13.448;2024-01-30T06:07:59;2.50;1.00
18741;DHT22;9499;52.472;13.448;2024-01-30T06:10:26;2.50;1.00
18741;DHT22;9499;52.472;13.448;2024-01-30T06:12:52;2.50;1.00
18741;DHT22;9499;52.472;13.448;2024-01-30T06:15:19;2.50;1.00
18741;DHT22;9499;52.472;13.448;2024-01-30T06:17:46;2.50;1.00
18741;DHT22;9499;52.472;13.448;2024-01-30T06:20:12;2.50;1.00
18741;DHT22;9499;52.472;13.448;2024-01-30T06:22:40;2.50;1.00
18741;DHT22;9499;52.472;13.448;2024-01-30T06:25:07;2.50;1.00
18741;DHT22;9499;52.472;13.448;2024-01-30T06:27:34;2.50;1.00
18741;DHT22;9499;52.472;13.448;2024-01-30T06:30:01;2.50;1.00
18741;DHT22;9499;52.472;13.448;2024-01-30T06:32:27;2.50;1.00
18741;DHT22;9499;52.472;13.448;2024-01-30T06:34:59;2.50;1.00
18741;DHT22;9499;52.472;13.448;2024-01-30T06:37:26;2.50;1.00
18741;DHT22;9499;52.472;13.448;2024-01-30T06:39:54;2.50;1.00
18741;DHT22;9499;52.472;13.448;2024-01-30T06:42:20;2.40;1.00
18741;DHT22;9499;52.472;13.448;2024-01-30T06:44:47;2.50;1.00
18741;DHT22;9499;52.472;13.448;2024-01-30T06:47:13;2.40;19.60
18741;DHT22;9499;52.472;13.448;2024-01-30T06:49:40;2.50;99.90
18741;DHT22;9499;52.472;13.448;2024-01-30T06:52:09;2.50;99.90
18741;DHT22;9499;52.472;13.448;2024-01-30T06:54:36;2.50;99.90
18741;DHT22;9499;52.472;13.448;2024-01-30T06:57:04;2.60;1.00
18741;DHT22;9499;52.472;13.448;2024-01-30T06:59:32;2.60;1.00
18741;DHT22;9499;52.472;13.448;2024-01-30T07:01:58;2.60;1.00
18741;DHT22;9499;52.472;13.448;2024-01-30T07:04:25;2.60;1.00
18741;DHT22;9499;52.472;13.448;2024-01-30T07:06:51;2.60;1.00
18741;DHT22;9499;52.472;13.448;2024-01-30T07:09:21;2.60;1.00
18741;DHT22;9499;52.472;13.448;2024-01-30T07:11:48;2.60;1.00
18741;DHT22;9499;52.472;13.448;2024-01-30T07:14:16;2.60;1.00
18741;DHT22;9499;52.472;13.448;2024-01-30T07:16:43;2.60;1.00
18741;DHT22;9499;52.472;13.448;2024-01-30T07:19:09;2.60;1.00
18741;DHT22;9499;52.472;13.448;2024-01-30T07:21:36;2.60;1.00
18741;DHT22;9499;52.472;13.448;2024-01-30T07:24:04;2.60;1.00
18741;DHT22;9499;52.472;13.448;2024-01-30T07:26:30;2.60;1.00
18741;DHT22;9499;52.472;13.448;2024-01-30T07:28:57;2.70;1.00
18741;DHT22;9499;52.472;13.448;2024-01-30T07:31:25;2.60;1.00
18741;DHT22;9499;52.472;13.448;2024-01-30T07:33:52;2.60;1.00
18741;DHT22;9499;52.472;13.448;2024-01-30T07:36:20;2.60;1.00
18741;DHT22;9499;52.472;13.448;2024-01-30T07:38:46;2.70;1.00
18741;DHT22;9499;52.472;13.448;2024-01-30T07:41:13;2.70;1.00
18741;DHT22;9499;52.472;13.448;2024-01-30T07:43:39;2.70;1.00
18741;DHT22;9499;52.472;13.448;2024-01-30T07:46:06;2.80;1.00
18741;DHT22;9499;52.472;13.448;2024-01-30T07:48:33;2.80;99.90
18741;DHT22;9499;52.472;13.448;2024-01-30T07:51:00;2.80;99.90
18741;DHT22;9499;52.472;13.448;2024-01-30T07:53:29;2.90;99.90
18741;DHT22;9499;52.472;13.448;2024-01-30T07:55:56;2.90;99.90
18741;DHT22;9499;52.472;13.448;2024-01-30T07:58:22;2.90;99.90
18741;DHT22;9499;52.472;13.448;2024-01-30T08:00:52;2.90;98.30
18741;DHT22;9499;52.472;13.448;2024-01-30T08:03:19;3.00;57.80
18741;DHT22;9499;52.472;13.448;2024-01-30T08:05:47;3.00;1.00
18741;DHT22;9499;52.472;13.448;2024-01-30T08:08:13;3.10;1.00
18741;DHT22;9499;52.472;13.448;2024-01-30T08:10:40;3.10;1.00
18741;DHT22;9499;52.472;13.448;2024-01-30T08:15:42;3.20;1.00
18741;DHT22;9499;52.472;13.448;2024-01-30T08:18:09;3.20;1.00
18741;DHT22;9499;52.472;13.448;2024-01-30T08:20:35;3.20;1.00
18741;DHT22;9499;52.472;13.448;2024-01-30T08:23:03;3.30;1.00
18741;DHT22;9499;52.472;13.448;2024-01-30T08:25:30;3.30;99.90
18741;DHT22;9499;52.472;13.448;2024-01-30T08:27:56;3.40;99.90
18741;DHT22;9499;52.472;13.448;2024-01-30T08:30:23;3.40;99.90
18741;DHT22;9499;52.472;13.448;2024-01-30T08:32:49;3.50;99.90
18741;DHT22;9499;52.472;13.448;2024-01-30T08:35:16;3.50;1.00
18741;DHT22;9499;52.472;13.448;2024-01-30T08:37:43;3.60;1.00
18741;DHT22;9499;52.472;13.448;2024-01-30T08:40:11;3.70;1.00
18741;DHT22;9499;52.472;13.448;2024-01-30T08:42:37;3.80;99.90
18741;DHT22;9499;52.472;13.448;2024-01-30T08:45:05;3.90;99.90
18741;DHT22;9499;52.472;13.448;2024-01-30T08:47:32;3.90;1.00
18741;DHT22;9499;52.472;13.448;2024-01-30T08:49:58;4.00;99.90
18741;DHT22;9499;52.472;13.448;2024-01-30T08:52:25;4.10;1.00
18741;DHT22;9499;52.472;13.448;2024-01-30T08:54:51;4.20;1.00
18741;DHT22;9499;52.472;13.448;2024-01-30T08:57:19;4.20;1.00
18741;DHT22;9499;52.472;13.448;2024-01-30T08:59:46;4.30;1.00
18741;DHT22;9499;52.472;13.448;2024-01-30T09:02:13;4.30;99.90
18741;DHT22;9499;52.472;13.448;2024-01-30T09:04:41;4.30;99.90
18741;DHT22;9499;52.472;13.448;2024-01-30T09:07:09;4.40;99.90
18741;DHT22;9499;52.472;13.448;2024-01-30T09:09:37;4.40;33.10
18741;DHT22;9499;52.472;13.448;2024-01-30T09:12:04;4.40;1.00
18741;DHT22;9499;52.472;13.448;2024-01-30T09:14:34;4.40;1.00
18741;DHT22;9499;52.472;13.448;2024-01-30T09:17:01;4.40;1.00
18741;DHT22;9499;52.472;13.448;2024-01-30T09:19:28;4.40;1.00
18741;DHT22;9499;52.472;13.448;2024-01-30T09:21:54;4.40;1.00
18741;DHT22;9499;52.472;13.448;2024-01-30T09:24:21;4.50;1.00
18741;DHT22;9499;52.472;13.448;2024-01-30T09:26:47;4.50;1.00
18741;DHT22;9499;52.472;13.448;2024-01-30T09:29:14;4.50;1.00
18741;DHT22;9499;52.472;13.448;2024-01-30T09:31:44;4.50;1.00
18741;DHT22;9499;52.472;13.448;2024-01-30T09:34:11;4.60;1.00
18741;DHT22;9499;52.472;13.448;2024-01-30T09:36:37;4.70;1.00
18741;DHT22;9499;52.472;13.448;2024-01-30T09:39:04;4.70;1.00
18741;DHT22;9499;52.472;13.448;2024-01-30T09:41:32;4.80;1.00
18741;DHT22;9499;52.472;13.448;2024-01-30T09:43:59;4.80;1.00
18741;DHT22;9499;52.472;13.448;2024-01-30T09:46:27;4.90;1.00
18741;DHT22;9499;52.472;13.448;2024-01-30T09:48:55;5.00;99.90
18741;DHT22;9499;52.472;13.448;2024-01-30T09:51:24;5.10;99.90
18741;DHT22;9499;52.472;13.448;2024-01-30T09:53:51;5.10;99.90
18741;DHT22;9499;52.472;13.448;2024-01-30T09:56:19;5.10;29.50
18741;DHT22;9499;52.472;13.448;2024-01-30T09:58:46;5.30;1.00
18741;DHT22;9499;52.472;13.448;2024-01-30T10:01:14;5.30;1.00
18741;DHT22;9499;52.472;13.448;2024-01-30T10:03:44;5.40;1.00
18741;DHT22;9499;52.472;13.448;2024-01-30T10:06:11;5.50;1.00
18741;DHT22;9499;52.472;13.448;2024-01-30T10:08:38;5.60;99.90
18741;DHT22;9499;52.472;13.448;2024-01-30T10:11:05;5.70;99.90
18741;DHT22;9499;52.472;13.448;2024-01-30T10:13:32;5.70;1.00
18741;DHT22;9499;52.472;13.448;2024-01-30T10:15:59;5.80;1.00
18741;DHT22;9499;52.472;13.448;2024-01-30T10:18:27;6.00;1.00
18741;DHT22;9499;52.472;13.448;2024-01-30T10:20:54;6.00;1.00
18741;DHT22;9499;52.472;13.448;2024-01-30T10:23:22;6.00;1.00
18741;DHT22;9499;52.472;13.448;2024-01-30T10:25:49;6.10;99.90
18741;DHT22;9499;52.472;13.448;2024-01-30T10:28:16;6.20;99.90
18741;DHT22;9499;52.472;13.448;2024-01-30T10:30:43;6.20;99.90
18741;DHT22;9499;52.472;13.448;2024-01-30T10:33:10;6.20;99.90
18741;DHT22;9499;52.472;13.448;2024-01-30T10:35:37;6.30;79.60
18741;DHT22;9499;52.472;13.448;2024-01-30T10:38:04;6.40;32.90
18741;DHT22;9499;52.472;13.448;2024-01-30T10:40:34;6.40;1.00
18741;DHT22;9499;52.472;13.448;2024-01-30T10:43:02;6.50;1.00
18741;DHT22;9499;52.472;13.448;2024-01-30T10:45:29;6.60;1.00
18741;DHT22;9499;52.472;13.448;2024-01-30T10:47:58;6.60;1.00
18741;DHT22;9499;52.472;13.448;2024-01-30T10:50:27;6.70;1.00
18741;DHT22;9499;52.472;13.448;2024-01-30T10:52:54;6.70;99.90
18741;DHT22;9499;52.472;13.448;2024-01-30T10:55:22;6.80;99.90
18741;DHT22;9499;52.472;13.448;2024-01-30T10:57:51;6.80;99.90
18741;DHT22;9499;52.472;13.448;2024-01-30T11:00:18;6.80;99.90
18741;DHT22;9499;52.472;13.448;2024-01-30T11:02:49;6.90;99.90
18741;DHT22;9499;52.472;13.448;2024-01-30T11:05:23;7.00;25.10
18741;DHT22;9499;52.472;13.448;2024-01-30T11:07:50;7.10;1.00
18741;DHT22;9499;52.472;13.448;2024-01-30T11:10:17;7.20;1.00
18741;DHT22;9499;52.472;13.448;2024-01-30T11:12:46;7.20;1.00
18741;DHT22;9499;52.472;13.448;2024-01-30T11:15:15;7.30;1.00
18741;DHT22;9499;52.472;13.448;2024-01-30T11:17:42;7.30;1.00
18741;DHT22;9499;52.472;13.448;2024-01-30T11:20:10;7.30;1.00
18741;DHT22;9499;52.472;13.448;2024-01-30T11:22:41;7.30;1.00
18741;DHT22;9499;52.472;13.448;2024-01-30T11:25:11;7.30;1.00
18741;DHT22;9499;52.472;13.448;2024-01-30T11:27:38;7.30;1.00
18741;DHT22;9499;52.472;13.448;2024-01-30T11:30:06;7.30;1.00
18741;DHT22;9499;52.472;13.448;2024-01-30T11:32:34;7.30;1.00
18741;DHT22;9499;52.472;13.448;2024-01-30T11:35:03;7.30;1.00
18741;DHT22;9499;52.472;13.448;2024-01-30T11:37:31;7.30;1.00
18741;DHT22;9499;52.472;13.448;2024-01-30T11:39:58;7.30;1.00
18741;DHT22;9499;52.472;13.448;2024-01-30T11:42:26;7.40;1.00
18741;DHT22;9499;52.472;13.448;2024-01-30T11:44:53;7.40;3.20
18741;DHT22;9499;52.472;13.448;2024-01-30T11:47:20;7.50;5.10
18741;DHT22;9499;52.472;13.448;2024-01-30T11:49:48;7.50;1.00
18741;DHT22;9499;52.472;13.448;2024-01-30T11:52:14;7.60;1.00
18741;DHT22;9499;52.472;13.448;2024-01-30T11:54:41;7.60;1.00
18741;DHT22;9499;52.472;13.448;2024-01-30T11:57:07;7.60;1.00
18741;DHT22;9499;52.472;13.448;2024-01-30T11:59:34;7.60;1.00
18741;DHT22;9499;52.472;13.448;2024-01-30T12:02:01;7.60;1.00
18741;DHT22;9499;52.472;13.448;2024-01-30T12:04:28;7.70;1.00
18741;DHT22;9499;52.472;13.448;2024-01-30T12:06:56;7.70;1.00
18741;DHT22;9499;52.472;13.448;2024-01-30T12:09:23;7.80;1.00
18741;DHT22;9499;52.472;13.448;2024-01-30T12:11:49;7.80;1.00
18741;DHT22;9499;52.472;13.448;2024-01-30T12:14:16;7.80;1.00
18741;DHT22;9499;52.472;13.448;2024-01-30T12:16:43;7.80;1.00
18741;DHT22;9499;52.472;13.448;2024-01-30T12:19:09;7.90;1.00
18741;DHT22;9499;52.472;13.448;2024-01-30T12:21:38;7.90;1.00
18741;DHT22;9499;52.472;13.448;2024-01-30T12:24:06;8.00;1.00
18741;DHT22;9499;52.472;13.448;2024-01-30T12:26:33;8.10;1.00
18741;DHT22;9499;52.472;13.448;2024-01-30T12:29:00;8.10;1.00
18741;DHT22;9499;52.472;13.448;2024-01-30T12:31:27;8.10;1.00
18741;DHT22;9499;52.472;13.448;2024-01-30T12:33:54;8.10;1.00
18741;DHT22;9499;52.472;13.448;2024-01-30T12:36:21;8.20;1.00
18741;DHT22;9499;52.472;13.448;2024-01-30T12:38:47;8.20;1.00
18741;DHT22;9499;52.472;13.448;2024-01-30T12:41:15;8.20;1.00
18741;DHT22;9499;52.472;13.448;2024-01-30T12:43:42;8.30;1.00
18741;DHT22;9499;52.472;13.448;2024-01-30T12:46:09;8.30;8.70
18741;DHT22;9499;52.472;13.448;2024-01-30T12:48:35;8.40;1.00
18741;DHT22;9499;52.472;13.448;2024-01-30T12:51:02;8.40;1.00
18741;DHT22;9499;52.472;13.448;2024-01-30T12:53:29;8.50;1.00
18741;DHT22;9499;52.472;13.448;2024-01-30T12:55:56;8.40;1.00
18741;DHT22;9499;52.472;13.448;2024-01-30T12:58:24;8.40;7.40
18741;DHT22;9499;52.472;13.448;2024-01-30T13:00:50;8.40;33.90
18741;DHT22;9499;52.472;13.448;2024-01-30T13:03:17;8.50;61.50
18741;DHT22;9499;52.472;13.448;2024-01-30T13:05:44;8.50;57.00
18741;DHT22;9499;52.472;13.448;2024-01-30T13:08:10;8.60;28.10
18741;DHT22;9499;52.472;13.448;2024-01-30T13:10:36;8.70;35.10
18741;DHT22;9499;52.472;13.448;2024-01-30T13:13:03;8.70;52.50
18741;DHT22;9499;52.472;13.448;2024-01-30T13:15:31;8.70;71.40
18741;DHT22;9499;52.472;13.448;2024-01-30T13:17:58;8.70;97.20
18741;DHT22;9499;52.472;13.448;2024-01-30T13:20:24;8.70;99.90
18741;DHT22;9499;52.472;13.448;2024-01-30T13:22:50;8.70;99.90
18741;DHT22;9499;52.472;13.448;2024-01-30T13:25:17;8.80;99.90
18741;DHT22;9499;52.472;13.448;2024-01-30T13:27:44;8.80;99.90
18741;DHT22;9499;52.472;13.448;2024-01-30T13:30:11;8.70;99.90
18741;DHT22;9499;52.472;13.448;2024-01-30T13:32:39;8.80;99.90
18741;DHT22;9499;52.472;13.448;2024-01-30T13:35:06;8.80;99.90
18741;DHT22;9499;52.472;13.448;2024-01-30T13:37:33;8.70;99.90
18741;DHT22;9499;52.472;13.448;2024-01-30T13:39:59;8.80;99.90
18741;DHT22;9499;52.472;13.448;2024-01-30T13:42:26;8.70;99.90
18741;DHT22;9499;52.472;13.448;2024-01-30T13:44:52;8.80;99.90
18741;DHT22;9499;52.472;13.448;2024-01-30T13:47:19;8.70;99.90
18741;DHT22;9499;52.472;13.448;2024-01-30T13:49:48;8.70;99.90
18741;DHT22;9499;52.472;13.448;2024-01-30T13:52:14;8.80;99.90
18741;DHT22;9499;52.472;13.448;2024-01-30T13:54:41;8.70;99.90
18741;DHT22;9499;52.472;13.448;2024-01-30T13:57:07;8.80;99.90
18741;DHT22;9499;52.472;13.448;2024-01-30T13:59:34;8.90;1.00
18741;DHT22;9499;52.472;13.448;2024-01-30T14:02:00;8.80;99.90
18741;DHT22;9499;52.472;13.448;2024-01-30T14:04:27;8.90;99.90
18741;DHT22;9499;52.472;13.448;2024-01-30T14:06:55;8.90;99.90
18741;DHT22;9499;52.472;13.448;2024-01-30T14:09:21;9.00;1.00
18741;DHT22;9499;52.472;13.448;2024-01-30T14:11:48;8.90;99.90
18741;DHT22;9499;52.472;13.448;2024-01-30T14:14:14;8.90;1.00
18741;DHT22;9499;52.472;13.448;2024-01-30T14:16:41;8.90;1.00
18741;DHT22;9499;52.472;13.448;2024-01-30T14:19:07;8.90;1.00
18741;DHT22;9499;52.472;13.448;2024-01-30T14:21:34;8.90;1.00
18741;DHT22;9499;52.472;13.448;2024-01-30T14:24:04;8.90;1.00
18741;DHT22;9499;52.472;13.448;2024-01-30T14:26:31;8.80;1.00
18741;DHT22;9499;52.472;13.448;2024-01-30T14:28:57;8.90;1.00
18741;DHT22;9499;52.472;13.448;2024-01-30T14:31:23;8.90;1.00
18741;DHT22;9499;52.472;13.448;2024-01-30T14:33:50;8.90;1.00
18741;DHT22;9499;52.472;13.448;2024-01-30T14:36:17;8.80;1.00
18741;DHT22;9499;52.472;13.448;2024-01-30T14:38:43;8.80;1.00
18741;DHT22;9499;52.472;13.448;2024-01-30T14:41:11;8.80;1.00
18741;DHT22;9499;52.472;13.448;2024-01-30T14:43:38;8.70;1.00
18741;DHT22;9499;52.472;13.448;2024-01-30T14:46:04;8.70;1.00
18741;DHT22;9499;52.472;13.448;2024-01-30T14:48:32;8.70;1.00
18741;DHT22;9499;52.472;13.448;2024-01-30T14:50:59;8.60;7.50
18741;DHT22;9499;52.472;13.448;2024-01-30T14:53:25;8.60;23.90
18741;DHT22;9499;52.472;13.448;2024-01-30T14:55:52;8.60;92.10
18741;DHT22;9499;52.472;13.448;2024-01-30T14:58:20;8.60;99.90
18741;DHT22;9499;52.472;13.448;2024-01-30T15:00:47;8.50;99.90
18741;DHT22;9499;52.472;13.448;2024-01-30T15:03:14;8.60;99.90
18741;DHT22;9499;52.472;13.448;2024-01-30T15:05:40;8.50;99.90
18741;DHT22;9499;52.472;13.448;2024-01-30T15:08:07;8.50;99.90
18741;DHT22;9499;52.472;13.448;2024-01-30T15:10:33;8.50;99.90
18741;DHT22;9499;52.472;13.448;2024-01-30T15:13:00;8.50;99.90
18741;DHT22;9499;52.472;13.448;2024-01-30T15:15:27;8.50;99.90
18741;DHT22;9499;52.472;13.448;2024-01-30T15:17:56;8.50;99.90
18741;DHT22;9499;52.472;13.448;2024-01-30T15:20:23;8.50;1.00
18741;DHT22;9499;52.472;13.448;2024-01-30T15:22:49;8.40;1.00
18741;DHT22;9499;52.472;13.448;2024-01-30T15:25:16;8.40;1.00
18741;DHT22;9499;52.472;13.448;2024-01-30T15:27:42;8.40;1.00
18741;DHT22;9499;52.472;13.448;2024-01-30T15:30:11;8.40;1.00
18741;DHT22;9499;52.472;13.448;2024-01-30T15:32:39;8.40;1.00
18741;DHT22;9499;52.472;13.448;2024-01-30T15:35:06;8.30;1.00
18741;DHT22;9499;52.472;13.448;2024-01-30T15:37:33;8.30;1.00
18741;DHT22;9499;52.472;13.448;2024-01-30T15:40:00;8.30;1.00
18741;DHT22;9499;52.472;13.448;2024-01-30T15:42:28;8.30;1.00
18741;DHT22;9499;52.472;13.448;2024-01-30T15:44:54;8.20;1.00
18741;DHT22;9499;52.472;13.448;2024-01-30T15:47:21;8.20;1.00
18741;DHT22;9499;52.472;13.448;2024-01-30T15:49:48;8.20;78.30
18741;DHT22;9499;52.472;13.448;2024-01-30T15:52:15;8.20;63.10
18741;DHT22;9499;52.472;13.448;2024-01-30T15:54:43;8.20;99.90